sensor_id;sensor_type;location;lat;lon;timestamp;P1;durP1;ratioP1;P2;durP2;ratioP2
3379;SDS011;1703;51.964;7.642;2023-02-11T00:00:43;65.23;;;33.23;;
3379;SDS011;1703;51.964;7.642;2023-02-11T00:03:10;52.70;;;28.10;;
3379;SDS011;1703;51.964;7.642;2023-02-11T00:05:37;71.33;;;29.83;;
3379;SDS011;1703;51.964;7.642;2023-02-11T00:08:05;60.60;;;31.83;;
3379;SDS011;1703;51.964;7.642;2023-02-11T00:10:32;47.87;;;28.40;;
3379;SDS011;1703;51.964;7.642;2023-02-11T00:12:58;55.13;;;30.80;;
3379;SDS011;1703;51.964;7.642;2023-02-11T00:15:25;52.00;;;31.10;;
3379;SDS011;1703;51.964;7.642;2023-02-11T00:17:52;54.63;;;27.30;;
3379;SDS011;1703;51.964;7.642;2023-02-11T00:20:19;58.17;;;29.40;;
3379;SDS011;1703;51.964;7.642;2023-02-11T00:22:46;64.67;;;27.90;;
3379;SDS011;1703;51.964;7.642;2023-02-11T00:25:14;54.20;;;27.33;;
3379;SDS011;1703;51.964;7.642;2023-02-11T00:27:41;55.13;;;30.47;;
3379;SDS011;1703;51.964;7.642;2023-02-11T00:30:08;59.80;;;32.70;;
3379;SDS011;1703;51.964;7.642;2023-02-11T00:32:36;59.13;;;27.70;;
3379;SDS011;1703;51.964;7.642;2023-02-11T00:35:04;67.37;;;29.73;;
3379;SDS011;1703;51.964;7.642;2023-02-11T00:37:31;57.70;;;28.13;;
3379;SDS011;1703;51.964;7.642;2023-02-11T00:40:01;61.40;;;30.70;;
3379;SDS011;1703;51.964;7.642;2023-02-11T00:42:32;55.90;;;30.43;;
3379;SDS011;1703;51.964;7.642;2023-02-11T00:44:59;56.63;;;27.67;;
3379;SDS011;1703;51.964;7.642;2023-02-11T00:47:26;59.13;;;29.27;;
3379;SDS011;1703;51.964;7.642;2023-02-11T00:49:53;60.53;;;29.40;;
3379;SDS011;1703;51.964;7.642;2023-02-11T00:52:20;59.63;;;30.60;;
3379;SDS011;1703;51.964;7.642;2023-02-11T00:54:47;63.17;;;29.73;;
3379;SDS011;1703;51.964;7.642;2023-02-11T00:57:13;56.53;;;29.20;;
3379;SDS011;1703;51.964;7.642;2023-02-11T00:59:42;50.60;;;26.73;;
3379;SDS011;1703;51.964;7.642;2023-02-11T01:02:09;44.70;;;26.30;;
3379;SDS011;1703;51.964;7.642;2023-02-11T01:04:35;53.43;;;27.10;;
3379;SDS011;1703;51.964;7.642;2023-02-11T01:07:02;59.73;;;31.67;;
3379;SDS011;1703;51.964;7.642;2023-02-11T01:09:29;53.47;;;26.50;;
3379;SDS011;1703;51.964;7.642;2023-02-11T01:11:57;53.43;;;25.30;;
3379;SDS011;1703;51.964;7.642;2023-02-11T01:14:23;59.63;;;27.97;;
3379;SDS011;1703;51.964;7.642;2023-02-11T01:16:52;51.07;;;27.13;;
3379;SDS011;1703;51.964;7.642;2023-02-11T01:19:19;44.07;;;25.80;;
3379;SDS011;1703;51.964;7.642;2023-02-11T01:21:46;47.17;;;24.97;;
3379;SDS011;1703;51.964;7.642;2023-02-11T01:24:13;60.07;;;27.37;;
3379;SDS011;1703;51.964;7.642;2023-02-11T01:26:42;64.27;;;29.17;;
3379;SDS011;1703;51.964;7.642;2023-02-11T01:29:09;48.60;;;26.93;;
3379;SDS011;1703;51.964;7.642;2023-02-11T01:31:36;59.33;;;28.63;;
3379;SDS011;1703;51.964;7.642;2023-02-11T01:34:04;53.00;;;24.67;;
3379;SDS011;1703;51.964;7.642;2023-02-11T01:36:31;49.77;;;25.80;;
3379;SDS011;1703;51.964;7.642;2023-02-11T01:38:58;57.00;;;28.77;;
3379;SDS011;1703;51.964;7.642;2023-02-11T01:41:25;66.60;;;27.20;;
3379;SDS011;1703;51.964;7.642;2023-02-11T01:43:55;54.23;;;26.40;;
3379;SDS011;1703;51.964;7.642;2023-02-11T01:46:25;48.60;;;27.10;;
3379;SDS011;1703;51.964;7.642;2023-02-11T01:48:56;41.50;;;24.80;;
3379;SDS011;1703;51.964;7.642;2023-02-11T01:51:28;65.27;;;28.23;;
3379;SDS011;1703;51.964;7.642;2023-02-11T01:53:58;44.17;;;25.17;;
3379;SDS011;1703;51.964;7.642;2023-02-11T01:56:45;42.53;;;25.40;;
3379;SDS011;1703;51.964;7.642;2023-02-11T01:59:37;44.73;;;26.70;;
3379;SDS011;1703;51.964;7.642;2023-02-11T02:02:10;40.80;;;22.60;;
3379;SDS011;1703;51.964;7.642;2023-02-11T02:04:40;57.07;;;27.53;;
3379;SDS011;1703;51.964;7.642;2023-02-11T02:07:15;43.00;;;23.80;;
3379;SDS011;1703;51.964;7.642;2023-02-11T02:09:48;48.37;;;24.73;;
3379;SDS011;1703;51.964;7.642;2023-02-11T02:12:23;51.63;;;24.17;;
3379;SDS011;1703;51.964;7.642;2023-02-11T02:14:49;57.47;;;26.33;;
3379;SDS011;1703;51.964;7.642;2023-02-11T02:17:20;47.83;;;25.30;;
3379;SDS011;1703;51.964;7.642;2023-02-11T02:20:02;48.50;;;25.37;;
3379;SDS011;1703;51.964;7.642;2023-02-11T02:22:55;46.63;;;25.60;;
3379;SDS011;1703;51.964;7.642;2023-02-11T02:26:09;41.60;;;23.97;;
3379;SDS011;1703;51.964;7.642;2023-02-11T02:35:18;38.67;;;21.90;;
3379;SDS011;1703;51.964;7.642;2023-02-11T02:37:55;43.87;;;22.33;;
3379;SDS011;1703;51.964;7.642;2023-02-11T02:40:28;42.83;;;23.90;;
3379;SDS011;1703;51.964;7.642;2023-02-11T02:42:58;34.40;;;21.00;;
3379;SDS011;1703;51.964;7.642;2023-02-11T02:45:26;42.33;;;22.23;;
3379;SDS011;1703;51.964;7.642;2023-02-11T02:47:53;32.40;;;20.57;;
3379;SDS011;1703;51.964;7.642;2023-02-11T02:50:22;31.90;;;19.73;;
3379;SDS011;1703;51.964;7.642;2023-02-11T02:52:58;38.43;;;22.00;;
3379;SDS011;1703;51.964;7.642;2023-02-11T02:55:40;43.23;;;22.07;;
3379;SDS011;1703;51.964;7.642;2023-02-11T02:58:29;35.43;;;19.13;;
3379;SDS011;1703;51.964;7.642;2023-02-11T03:01:12;39.60;;;21.07;;
3379;SDS011;1703;51.964;7.642;2023-02-11T03:03:51;30.17;;;19.73;;
3379;SDS011;1703;51.964;7.642;2023-02-11T03:06:27;51.20;;;21.97;;
3379;SDS011;1703;51.964;7.642;2023-02-11T03:08:58;40.13;;;22.13;;
3379;SDS011;1703;51.964;7.642;2023-02-11T03:11:30;36.47;;;20.30;;
3379;SDS011;1703;51.964;7.642;2023-02-11T03:13:59;35.30;;;19.43;;
3379;SDS011;1703;51.964;7.642;2023-02-11T03:16:28;38.23;;;18.50;;
3379;SDS011;1703;51.964;7.642;2023-02-11T03:19:01;31.93;;;17.87;;
3379;SDS011;1703;51.964;7.642;2023-02-11T03:21:32;31.90;;;18.73;;
3379;SDS011;1703;51.964;7.642;2023-02-11T03:24:02;29.00;;;16.87;;
3379;SDS011;1703;51.964;7.642;2023-02-11T03:26:33;42.33;;;20.67;;
3379;SDS011;1703;51.964;7.642;2023-02-11T03:29:05;47.60;;;18.60;;
3379;SDS011;1703;51.964;7.642;2023-02-11T03:31:40;33.00;;;18.77;;
3379;SDS011;1703;51.964;7.642;2023-02-11T03:34:15;35.80;;;20.40;;
3379;SDS011;1703;51.964;7.642;2023-02-11T03:36:49;40.00;;;20.70;;
3379;SDS011;1703;51.964;7.642;2023-02-11T03:39:21;28.40;;;19.27;;
3379;SDS011;1703;51.964;7.642;2023-02-11T03:41:50;29.27;;;17.10;;
3379;SDS011;1703;51.964;7.642;2023-02-11T03:44:20;35.40;;;18.30;;
3379;SDS011;1703;51.964;7.642;2023-02-11T03:46:50;38.63;;;20.60;;
3379;SDS011;1703;51.964;7.642;2023-02-11T03:49:19;34.20;;;17.33;;
3379;SDS011;1703;51.964;7.642;2023-02-11T03:51:50;32.73;;;19.10;;
3379;SDS011;1703;51.964;7.642;2023-02-11T03:54:20;38.43;;;17.97;;
3379;SDS011;1703;51.964;7.642;2023-02-11T03:56:51;36.13;;;18.00;;
3379;SDS011;1703;51.964;7.642;2023-02-11T03:59:20;56.20;;;21.03;;
3379;SDS011;1703;51.964;7.642;2023-02-11T04:01:47;34.30;;;19.67;;
3379;SDS011;1703;51.964;7.642;2023-02-11T04:04:14;34.17;;;20.10;;
3379;SDS011;1703;51.964;7.642;2023-02-11T04:06:40;34.40;;;19.20;;
3379;SDS011;1703;51.964;7.642;2023-02-11T04:09:09;28.83;;;19.47;;
3379;SDS011;1703;51.964;7.642;2023-02-11T04:11:36;43.43;;;21.67;;
3379;SDS011;1703;51.964;7.642;2023-02-11T04:14:03;43.27;;;22.33;;
3379;SDS011;1703;51.964;7.642;2023-02-11T04:16:30;36.77;;;19.40;;
3379;SDS011;1703;51.964;7.642;2023-02-11T04:18:56;33.30;;;19.13;;
3379;SDS011;1703;51.964;7.642;2023-02-11T04:21:23;46.30;;;21.13;;
3379;SDS011;1703;51.964;7.642;2023-02-11T04:23:50;29.77;;;19.53;;
3379;SDS011;1703;51.964;7.642;2023-02-11T04:26:18;37.40;;;20.03;;
3379;SDS011;1703;51.964;7.642;2023-02-11T04:28:45;37.87;;;20.83;;
3379;SDS011;1703;51.964;7.642;2023-02-11T04:31:12;37.57;;;20.97;;
3379;SDS011;1703;51.964;7.642;2023-02-11T04:33:39;41.50;;;21.80;;
3379;SDS011;1703;51.964;7.642;2023-02-11T04:36:06;41.13;;;21.07;;
3379;SDS011;1703;51.964;7.642;2023-02-11T04:38:33;44.67;;;24.07;;
3379;SDS011;1703;51.964;7.642;2023-02-11T04:41:00;41.53;;;21.40;;
3379;SDS011;1703;51.964;7.642;2023-02-11T04:43:28;41.33;;;19.50;;
3379;SDS011;1703;51.964;7.642;2023-02-11T04:45:55;40.47;;;22.27;;
3379;SDS011;1703;51.964;7.642;2023-02-11T04:48:23;37.40;;;21.07;;
3379;SDS011;1703;51.964;7.642;2023-02-11T04:50:50;33.77;;;21.60;;
3379;SDS011;1703;51.964;7.642;2023-02-11T04:53:17;35.33;;;19.33;;
3379;SDS011;1703;51.964;7.642;2023-02-11T04:55:43;38.83;;;22.30;;
3379;SDS011;1703;51.964;7.642;2023-02-11T04:58:13;42.87;;;19.70;;
3379;SDS011;1703;51.964;7.642;2023-02-11T05:00:41;37.73;;;18.87;;
3379;SDS011;1703;51.964;7.642;2023-02-11T05:03:08;40.40;;;21.80;;
3379;SDS011;1703;51.964;7.642;2023-02-11T05:05:36;33.83;;;20.07;;
3379;SDS011;1703;51.964;7.642;2023-02-11T05:08:04;28.63;;;19.10;;
3379;SDS011;1703;51.964;7.642;2023-02-11T05:10:31;36.57;;;19.07;;
3379;SDS011;1703;51.964;7.642;2023-02-11T05:12:58;43.17;;;20.80;;
3379;SDS011;1703;51.964;7.642;2023-02-11T05:15:25;32.03;;;21.03;;
3379;SDS011;1703;51.964;7.642;2023-02-11T05:17:54;31.80;;;19.00;;
3379;SDS011;1703;51.964;7.642;2023-02-11T05:20:21;31.37;;;20.57;;
3379;SDS011;1703;51.964;7.642;2023-02-11T05:22:48;38.10;;;22.53;;
3379;SDS011;1703;51.964;7.642;2023-02-11T05:25:14;36.17;;;22.00;;
3379;SDS011;1703;51.964;7.642;2023-02-11T05:27:41;36.67;;;23.10;;
3379;SDS011;1703;51.964;7.642;2023-02-11T05:30:09;34.97;;;19.87;;
3379;SDS011;1703;51.964;7.642;2023-02-11T05:32:36;50.10;;;23.77;;
3379;SDS011;1703;51.964;7.642;2023-02-11T05:35:05;39.33;;;21.43;;
3379;SDS011;1703;51.964;7.642;2023-02-11T05:37:32;32.77;;;21.77;;
3379;SDS011;1703;51.964;7.642;2023-02-11T05:39:59;35.13;;;21.20;;
3379;SDS011;1703;51.964;7.642;2023-02-11T05:42:26;43.40;;;21.10;;
3379;SDS011;1703;51.964;7.642;2023-02-11T05:44:53;35.70;;;19.10;;
3379;SDS011;1703;51.964;7.642;2023-02-11T05:47:19;42.30;;;19.70;;
3379;SDS011;1703;51.964;7.642;2023-02-11T05:49:46;32.40;;;19.10;;
3379;SDS011;1703;51.964;7.642;2023-02-11T05:52:14;37.67;;;19.57;;
3379;SDS011;1703;51.964;7.642;2023-02-11T05:54:41;37.37;;;18.73;;
3379;SDS011;1703;51.964;7.642;2023-02-11T05:57:08;35.73;;;18.17;;
3379;SDS011;1703;51.964;7.642;2023-02-11T05:59:34;43.10;;;20.70;;
3379;SDS011;1703;51.964;7.642;2023-02-11T06:02:01;38.70;;;20.40;;
3379;SDS011;1703;51.964;7.642;2023-02-11T06:04:28;38.20;;;21.67;;
3379;SDS011;1703;51.964;7.642;2023-02-11T06:06:55;34.43;;;19.80;;
3379;SDS011;1703;51.964;7.642;2023-02-11T06:09:23;43.17;;;21.20;;
3379;SDS011;1703;51.964;7.642;2023-02-11T06:11:50;37.47;;;22.70;;
3379;SDS011;1703;51.964;7.642;2023-02-11T06:14:17;35.17;;;19.37;;
3379;SDS011;1703;51.964;7.642;2023-02-11T06:16:44;47.77;;;23.57;;
3379;SDS011;1703;51.964;7.642;2023-02-11T06:19:11;30.60;;;18.37;;
3379;SDS011;1703;51.964;7.642;2023-02-11T06:21:38;36.53;;;21.30;;
3379;SDS011;1703;51.964;7.642;2023-02-11T06:24:05;35.33;;;20.97;;
3379;SDS011;1703;51.964;7.642;2023-02-11T06:26:34;58.67;;;21.87;;
3379;SDS011;1703;51.964;7.642;2023-02-11T06:29:01;32.00;;;19.10;;
3379;SDS011;1703;51.964;7.642;2023-02-11T06:31:28;43.60;;;24.13;;
3379;SDS011;1703;51.964;7.642;2023-02-11T06:33:54;42.73;;;25.00;;
3379;SDS011;1703;51.964;7.642;2023-02-11T06:36:22;39.47;;;20.90;;
3379;SDS011;1703;51.964;7.642;2023-02-11T06:38:49;43.43;;;22.43;;
3379;SDS011;1703;51.964;7.642;2023-02-11T06:41:17;44.90;;;23.13;;
3379;SDS011;1703;51.964;7.642;2023-02-11T06:43:46;42.00;;;23.07;;
3379;SDS011;1703;51.964;7.642;2023-02-11T06:46:13;50.80;;;24.10;;
3379;SDS011;1703;51.964;7.642;2023-02-11T06:48:40;45.10;;;23.30;;
3379;SDS011;1703;51.964;7.642;2023-02-11T06:51:08;42.37;;;24.43;;
3379;SDS011;1703;51.964;7.642;2023-02-11T06:53:37;43.83;;;25.30;;
3379;SDS011;1703;51.964;7.642;2023-02-11T06:56:06;43.83;;;23.70;;
3379;SDS011;1703;51.964;7.642;2023-02-11T06:58:34;49.90;;;24.70;;
3379;SDS011;1703;51.964;7.642;2023-02-11T07:01:04;54.47;;;24.30;;
3379;SDS011;1703;51.964;7.642;2023-02-11T07:03:32;42.47;;;23.53;;
3379;SDS011;1703;51.964;7.642;2023-02-11T07:06:00;42.17;;;25.00;;
3379;SDS011;1703;51.964;7.642;2023-02-11T07:08:27;36.17;;;24.43;;
3379;SDS011;1703;51.964;7.642;2023-02-11T07:10:54;54.53;;;25.93;;
3379;SDS011;1703;51.964;7.642;2023-02-11T07:13:20;53.73;;;26.27;;
3379;SDS011;1703;51.964;7.642;2023-02-11T07:15:47;57.23;;;26.70;;
3379;SDS011;1703;51.964;7.642;2023-02-11T07:18:16;44.93;;;25.83;;
3379;SDS011;1703;51.964;7.642;2023-02-11T07:20:43;48.47;;;24.90;;
3379;SDS011;1703;51.964;7.642;2023-02-11T07:23:10;54.93;;;27.03;;
3379;SDS011;1703;51.964;7.642;2023-02-11T07:25:36;57.00;;;27.20;;
3379;SDS011;1703;51.964;7.642;2023-02-11T07:28:03;49.73;;;27.87;;
3379;SDS011;1703;51.964;7.642;2023-02-11T07:30:30;53.40;;;26.87;;
3379;SDS011;1703;51.964;7.642;2023-02-11T07:32:58;60.27;;;27.23;;
3379;SDS011;1703;51.964;7.642;2023-02-11T07:35:26;60.80;;;27.77;;
3379;SDS011;1703;51.964;7.642;2023-02-11T07:37:53;51.60;;;28.30;;
3379;SDS011;1703;51.964;7.642;2023-02-11T07:40:20;51.40;;;27.83;;
3379;SDS011;1703;51.964;7.642;2023-02-11T07:42:46;51.07;;;26.77;;
3379;SDS011;1703;51.964;7.642;2023-02-11T07:45:13;47.17;;;25.70;;
3379;SDS011;1703;51.964;7.642;2023-02-11T07:47:40;55.43;;;28.33;;
3379;SDS011;1703;51.964;7.642;2023-02-11T07:50:07;63.47;;;28.17;;
3379;SDS011;1703;51.964;7.642;2023-02-11T07:52:36;60.73;;;29.50;;
3379;SDS011;1703;51.964;7.642;2023-02-11T07:55:03;41.27;;;24.73;;
3379;SDS011;1703;51.964;7.642;2023-02-11T07:57:30;50.07;;;28.77;;
3379;SDS011;1703;51.964;7.642;2023-02-11T07:59:57;53.20;;;28.33;;
3379;SDS011;1703;51.964;7.642;2023-02-11T08:02:24;47.47;;;26.37;;
3379;SDS011;1703;51.964;7.642;2023-02-11T08:04:51;49.17;;;28.80;;
3379;SDS011;1703;51.964;7.642;2023-02-11T08:07:17;55.57;;;29.10;;
3379;SDS011;1703;51.964;7.642;2023-02-11T08:09:45;50.63;;;28.00;;
3379;SDS011;1703;51.964;7.642;2023-02-11T08:12:12;63.03;;;28.23;;
3379;SDS011;1703;51.964;7.642;2023-02-11T08:14:39;51.40;;;27.17;;
3379;SDS011;1703;51.964;7.642;2023-02-11T08:17:06;56.30;;;27.60;;
3379;SDS011;1703;51.964;7.642;2023-02-11T08:19:33;53.77;;;28.33;;
3379;SDS011;1703;51.964;7.642;2023-02-11T08:22:00;57.33;;;28.37;;
3379;SDS011;1703;51.964;7.642;2023-02-11T08:24:26;49.63;;;28.30;;
3379;SDS011;1703;51.964;7.642;2023-02-11T08:26:54;61.70;;;27.63;;
3379;SDS011;1703;51.964;7.642;2023-02-11T08:29:21;54.40;;;28.03;;
3379;SDS011;1703;51.964;7.642;2023-02-11T08:31:48;51.30;;;29.00;;
3379;SDS011;1703;51.964;7.642;2023-02-11T08:34:15;51.27;;;27.37;;
3379;SDS011;1703;51.964;7.642;2023-02-11T08:36:43;55.73;;;27.73;;
3379;SDS011;1703;51.964;7.642;2023-02-11T08:39:13;55.50;;;29.53;;
3379;SDS011;1703;51.964;7.642;2023-02-11T08:41:41;64.13;;;29.00;;
3379;SDS011;1703;51.964;7.642;2023-02-11T08:44:09;61.60;;;30.93;;
3379;SDS011;1703;51.964;7.642;2023-02-11T08:46:36;61.40;;;32.97;;
3379;SDS011;1703;51.964;7.642;2023-02-11T08:49:03;57.47;;;29.27;;
3379;SDS011;1703;51.964;7.642;2023-02-11T08:51:30;67.93;;;29.57;;
3379;SDS011;1703;51.964;7.642;2023-02-11T08:53:57;53.47;;;29.03;;
3379;SDS011;1703;51.964;7.642;2023-02-11T08:56:24;60.97;;;27.97;;
3379;SDS011;1703;51.964;7.642;2023-02-11T08:58:51;60.37;;;29.50;;
3379;SDS011;1703;51.964;7.642;2023-02-11T09:01:21;57.27;;;25.87;;
3379;SDS011;1703;51.964;7.642;2023-02-11T09:03:49;68.27;;;29.30;;
3379;SDS011;1703;51.964;7.642;2023-02-11T09:06:17;60.50;;;29.70;;
3379;SDS011;1703;51.964;7.642;2023-02-11T09:08:44;65.77;;;27.87;;
3379;SDS011;1703;51.964;7.642;2023-02-11T09:11:13;54.37;;;28.60;;
3379;SDS011;1703;51.964;7.642;2023-02-11T09:13:41;52.57;;;29.60;;
3379;SDS011;1703;51.964;7.642;2023-02-11T09:16:15;60.23;;;27.67;;
3379;SDS011;1703;51.964;7.642;2023-02-11T09:18:44;69.67;;;34.33;;
3379;SDS011;1703;51.964;7.642;2023-02-11T09:21:11;57.67;;;28.93;;
3379;SDS011;1703;51.964;7.642;2023-02-11T09:23:39;65.23;;;30.57;;
3379;SDS011;1703;51.964;7.642;2023-02-11T09:26:09;57.90;;;27.40;;
3379;SDS011;1703;51.964;7.642;2023-02-11T09:28:38;61.90;;;27.73;;
3379;SDS011;1703;51.964;7.642;2023-02-11T09:31:05;55.97;;;29.53;;
3379;SDS011;1703;51.964;7.642;2023-02-11T09:33:32;62.20;;;29.57;;
3379;SDS011;1703;51.964;7.642;2023-02-11T09:36:01;65.07;;;27.90;;
3379;SDS011;1703;51.964;7.642;2023-02-11T09:38:28;63.53;;;27.13;;
3379;SDS011;1703;51.964;7.642;2023-02-11T09:40:56;51.40;;;29.33;;
3379;SDS011;1703;51.964;7.642;2023-02-11T09:43:23;51.67;;;29.20;;
3379;SDS011;1703;51.964;7.642;2023-02-11T09:45:56;66.77;;;32.17;;
3379;SDS011;1703;51.964;7.642;2023-02-11T09:48:23;64.97;;;29.37;;
3379;SDS011;1703;51.964;7.642;2023-02-11T09:50:50;53.93;;;31.03;;
3379;SDS011;1703;51.964;7.642;2023-02-11T09:53:22;48.33;;;25.73;;
3379;SDS011;1703;51.964;7.642;2023-02-11T09:55:50;56.63;;;26.47;;
3379;SDS011;1703;51.964;7.642;2023-02-11T09:58:21;57.03;;;28.73;;
3379;SDS011;1703;51.964;7.642;2023-02-11T10:00:52;51.73;;;28.10;;
3379;SDS011;1703;51.964;7.642;2023-02-11T10:03:30;65.23;;;32.57;;
3379;SDS011;1703;51.964;7.642;2023-02-11T10:06:20;59.70;;;27.53;;
3379;SDS011;1703;51.964;7.642;2023-02-11T10:09:05;65.33;;;28.83;;
3379;SDS011;1703;51.964;7.642;2023-02-11T10:12:02;73.40;;;28.57;;
3379;SDS011;1703;51.964;7.642;2023-02-11T10:14:46;72.63;;;30.30;;
3379;SDS011;1703;51.964;7.642;2023-02-11T10:17:22;57.80;;;27.67;;
3379;SDS011;1703;51.964;7.642;2023-02-11T10:20:02;66.63;;;30.73;;
3379;SDS011;1703;51.964;7.642;2023-02-11T10:22:39;60.83;;;29.67;;
3379;SDS011;1703;51.964;7.642;2023-02-11T10:25:15;62.07;;;30.90;;
3379;SDS011;1703;51.964;7.642;2023-02-11T10:27:46;59.67;;;29.10;;
3379;SDS011;1703;51.964;7.642;2023-02-11T10:30:17;55.17;;;28.27;;
3379;SDS011;1703;51.964;7.642;2023-02-11T10:32:49;60.70;;;31.00;;
3379;SDS011;1703;51.964;7.642;2023-02-11T10:35:21;62.20;;;30.10;;
3379;SDS011;1703;51.964;7.642;2023-02-11T10:37:48;67.73;;;29.47;;
3379;SDS011;1703;51.964;7.642;2023-02-11T10:40:18;71.27;;;31.27;;
3379;SDS011;1703;51.964;7.642;2023-02-11T10:42:47;59.40;;;31.67;;
3379;SDS011;1703;51.964;7.642;2023-02-11T10:45:18;51.63;;;28.90;;
3379;SDS011;1703;51.964;7.642;2023-02-11T10:47:49;52.00;;;27.10;;
3379;SDS011;1703;51.964;7.642;2023-02-11T10:50:18;61.33;;;30.67;;
3379;SDS011;1703;51.964;7.642;2023-02-11T10:52:47;70.30;;;30.90;;
3379;SDS011;1703;51.964;7.642;2023-02-11T10:55:14;65.30;;;30.97;;
3379;SDS011;1703;51.964;7.642;2023-02-11T10:57:51;83.83;;;33.07;;
3379;SDS011;1703;51.964;7.642;2023-02-11T11:03:06;65.90;;;31.00;;
3379;SDS011;1703;51.964;7.642;2023-02-11T11:05:44;71.60;;;31.40;;
3379;SDS011;1703;51.964;7.642;2023-02-11T11:08:13;59.47;;;31.30;;
3379;SDS011;1703;51.964;7.642;2023-02-11T11:10:42;61.37;;;29.90;;
3379;SDS011;1703;51.964;7.642;2023-02-11T11:13:28;69.97;;;28.63;;
3379;SDS011;1703;51.964;7.642;2023-02-11T11:16:14;57.33;;;29.03;;
3379;SDS011;1703;51.964;7.642;2023-02-11T11:18:43;53.00;;;30.00;;
3379;SDS011;1703;51.964;7.642;2023-02-11T11:21:13;58.63;;;31.40;;
3379;SDS011;1703;51.964;7.642;2023-02-11T11:23:46;61.20;;;31.30;;
3379;SDS011;1703;51.964;7.642;2023-02-11T11:26:15;64.87;;;31.83;;
3379;SDS011;1703;51.964;7.642;2023-02-11T11:28:51;66.70;;;32.67;;
3379;SDS011;1703;51.964;7.642;2023-02-11T11:31:22;67.63;;;30.00;;
3379;SDS011;1703;51.964;7.642;2023-02-11T11:33:52;56.77;;;30.67;;
3379;SDS011;1703;51.964;7.642;2023-02-11T11:36:21;64.63;;;28.80;;
3379;SDS011;1703;51.964;7.642;2023-02-11T11:38:56;71.63;;;33.83;;
3379;SDS011;1703;51.964;7.642;2023-02-11T11:41:26;70.43;;;33.60;;
3379;SDS011;1703;51.964;7.642;2023-02-11T11:44:00;68.67;;;31.80;;
3379;SDS011;1703;51.964;7.642;2023-02-11T11:46:30;72.37;;;31.10;;
3379;SDS011;1703;51.964;7.642;2023-02-11T11:49:16;66.40;;;34.10;;
3379;SDS011;1703;51.964;7.642;2023-02-11T11:51:52;63.37;;;33.37;;
3379;SDS011;1703;51.964;7.642;2023-02-11T11:54:23;63.37;;;31.13;;
3379;SDS011;1703;51.964;7.642;2023-02-11T11:56:53;69.23;;;33.00;;
3379;SDS011;1703;51.964;7.642;2023-02-11T11:59:26;65.90;;;34.13;;
3379;SDS011;1703;51.964;7.642;2023-02-11T12:02:00;67.97;;;32.23;;
3379;SDS011;1703;51.964;7.642;2023-02-11T12:04:46;60.03;;;33.20;;
3379;SDS011;1703;51.964;7.642;2023-02-11T12:07:26;78.60;;;32.17;;
3379;SDS011;1703;51.964;7.642;2023-02-11T12:12:54;79.43;;;34.37;;
3379;SDS011;1703;51.964;7.642;2023-02-11T12:15:33;77.93;;;32.27;;
3379;SDS011;1703;51.964;7.642;2023-02-11T12:18:12;70.20;;;31.53;;
3379;SDS011;1703;51.964;7.642;2023-02-11T12:20:51;71.20;;;30.37;;
3379;SDS011;1703;51.964;7.642;2023-02-11T12:23:35;80.47;;;33.90;;
3379;SDS011;1703;51.964;7.642;2023-02-11T12:26:12;69.13;;;35.90;;
3379;SDS011;1703;51.964;7.642;2023-02-11T12:28:43;80.00;;;34.20;;
3379;SDS011;1703;51.964;7.642;2023-02-11T12:31:28;72.97;;;32.40;;
3379;SDS011;1703;51.964;7.642;2023-02-11T12:34:08;55.53;;;29.50;;
3379;SDS011;1703;51.964;7.642;2023-02-11T12:36:51;60.13;;;31.43;;
3379;SDS011;1703;51.964;7.642;2023-02-11T12:39:32;71.07;;;32.40;;
3379;SDS011;1703;51.964;7.642;2023-02-11T12:42:10;59.53;;;32.70;;
3379;SDS011;1703;51.964;7.642;2023-02-11T12:45:12;52.47;;;32.03;;
3379;SDS011;1703;51.964;7.642;2023-02-11T12:47:54;71.03;;;33.53;;
3379;SDS011;1703;51.964;7.642;2023-02-11T12:50:37;65.83;;;34.83;;
3379;SDS011;1703;51.964;7.642;2023-02-11T12:53:22;69.20;;;35.17;;
3379;SDS011;1703;51.964;7.642;2023-02-11T12:56:02;64.07;;;31.43;;
3379;SDS011;1703;51.964;7.642;2023-02-11T12:58:32;68.10;;;34.60;;
3379;SDS011;1703;51.964;7.642;2023-02-11T13:01:02;70.93;;;34.93;;
3379;SDS011;1703;51.964;7.642;2023-02-11T13:03:36;71.17;;;32.97;;
3379;SDS011;1703;51.964;7.642;2023-02-11T13:06:06;69.13;;;32.03;;
3379;SDS011;1703;51.964;7.642;2023-02-11T13:08:37;71.50;;;34.20;;
3379;SDS011;1703;51.964;7.642;2023-02-11T13:11:10;69.30;;;33.37;;
3379;SDS011;1703;51.964;7.642;2023-02-11T13:13:45;59.50;;;31.07;;
3379;SDS011;1703;51.964;7.642;2023-02-11T13:16:18;61.47;;;32.87;;
3379;SDS011;1703;51.964;7.642;2023-02-11T13:18:59;65.83;;;33.50;;
3379;SDS011;1703;51.964;7.642;2023-02-11T13:21:35;57.80;;;31.30;;
3379;SDS011;1703;51.964;7.642;2023-02-11T13:24:14;59.47;;;29.00;;
3379;SDS011;1703;51.964;7.642;2023-02-11T13:26:53;58.83;;;30.33;;
3379;SDS011;1703;51.964;7.642;2023-02-11T13:29:28;58.27;;;31.23;;
3379;SDS011;1703;51.964;7.642;2023-02-11T13:32:05;61.43;;;32.60;;
3379;SDS011;1703;51.964;7.642;2023-02-11T13:37:22;76.33;;;31.87;;
3379;SDS011;1703;51.964;7.642;2023-02-11T13:39:55;62.73;;;31.70;;
3379;SDS011;1703;51.964;7.642;2023-02-11T13:42:23;70.40;;;31.83;;
3379;SDS011;1703;51.964;7.642;2023-02-11T13:44:50;55.17;;;30.90;;
3379;SDS011;1703;51.964;7.642;2023-02-11T13:47:21;66.87;;;31.37;;
3379;SDS011;1703;51.964;7.642;2023-02-11T13:49:53;56.90;;;30.17;;
3379;SDS011;1703;51.964;7.642;2023-02-11T13:52:22;61.20;;;27.03;;
3379;SDS011;1703;51.964;7.642;2023-02-11T13:54:52;49.77;;;27.13;;
3379;SDS011;1703;51.964;7.642;2023-02-11T13:57:24;54.47;;;27.03;;
3379;SDS011;1703;51.964;7.642;2023-02-11T13:59:55;50.60;;;28.47;;
3379;SDS011;1703;51.964;7.642;2023-02-11T14:02:28;48.13;;;26.27;;
3379;SDS011;1703;51.964;7.642;2023-02-11T14:05:23;46.43;;;25.97;;
3379;SDS011;1703;51.964;7.642;2023-02-11T14:08:12;41.73;;;25.80;;
3379;SDS011;1703;51.964;7.642;2023-02-11T14:11:07;50.23;;;27.53;;
3379;SDS011;1703;51.964;7.642;2023-02-11T14:14:02;45.33;;;25.53;;
3379;SDS011;1703;51.964;7.642;2023-02-11T14:19:47;48.60;;;24.73;;
3379;SDS011;1703;51.964;7.642;2023-02-11T14:22:17;44.53;;;25.17;;
3379;SDS011;1703;51.964;7.642;2023-02-11T14:24:49;44.27;;;24.07;;
3379;SDS011;1703;51.964;7.642;2023-02-11T14:27:23;42.50;;;24.27;;
3379;SDS011;1703;51.964;7.642;2023-02-11T14:30:08;44.47;;;25.47;;
3379;SDS011;1703;51.964;7.642;2023-02-11T14:32:46;43.53;;;25.80;;
3379;SDS011;1703;51.964;7.642;2023-02-11T14:35:22;49.63;;;24.50;;
3379;SDS011;1703;51.964;7.642;2023-02-11T14:37:57;45.07;;;24.10;;
3379;SDS011;1703;51.964;7.642;2023-02-11T14:40:30;50.10;;;25.97;;
3379;SDS011;1703;51.964;7.642;2023-02-11T14:43:00;60.80;;;26.40;;
3379;SDS011;1703;51.964;7.642;2023-02-11T14:45:35;39.30;;;22.50;;
3379;SDS011;1703;51.964;7.642;2023-02-11T14:48:03;52.43;;;27.70;;
3379;SDS011;1703;51.964;7.642;2023-02-11T14:50:34;41.23;;;22.93;;
3379;SDS011;1703;51.964;7.642;2023-02-11T14:53:10;52.03;;;25.60;;
3379;SDS011;1703;51.964;7.642;2023-02-11T14:55:40;41.43;;;23.00;;
3379;SDS011;1703;51.964;7.642;2023-02-11T14:58:11;45.23;;;24.57;;
3379;SDS011;1703;51.964;7.642;2023-02-11T15:00:48;46.27;;;25.30;;
3379;SDS011;1703;51.964;7.642;2023-02-11T15:03:30;39.30;;;23.13;;
3379;SDS011;1703;51.964;7.642;2023-02-11T15:06:00;38.90;;;24.50;;
3379;SDS011;1703;51.964;7.642;2023-02-11T15:08:31;51.10;;;26.17;;
3379;SDS011;1703;51.964;7.642;2023-02-11T15:11:01;45.47;;;24.20;;
3379;SDS011;1703;51.964;7.642;2023-02-11T15:13:32;40.90;;;23.17;;
3379;SDS011;1703;51.964;7.642;2023-02-11T15:16:03;41.23;;;21.47;;
3379;SDS011;1703;51.964;7.642;2023-02-11T15:18:33;42.03;;;24.70;;
3379;SDS011;1703;51.964;7.642;2023-02-11T15:21:04;44.83;;;23.40;;
3379;SDS011;1703;51.964;7.642;2023-02-11T15:23:33;50.93;;;24.23;;
3379;SDS011;1703;51.964;7.642;2023-02-11T15:26:00;41.53;;;24.30;;
3379;SDS011;1703;51.964;7.642;2023-02-11T15:28:30;42.97;;;24.40;;